KILG

New Castle Airport

Wilmington, Delaware, USA
KILG 241738Z 2418/2518 08011G18KT P6SM VCSH OVC030 FM242300 08011KT P6SM OVC025 TEMPO 2423/2503 4SM -RA OVC015 FM250300 08011KT 3SM -RA BR OVC015 FM250900 11009KT 2SM -RA BR OVC008 FM251100 12009KT 4SM SHRA OVC010 FM251600 17009KT 5SM -SHRA OVC020
Issued Valid From Valid To
Sep-24 @ 17:38 UTC
(6 hours ago)
Sep-24 @ 18:00 UTC
(5 hours ago)
Sep-25 @ 18:00 UTC
(in 19 hours)
Expired Click to View Sep-24 @ 18:00 to Sep-24 @ 23:00
KILG 241738Z 2418/2518 08011G18KT P6SM VCSH OVC030
Wind Visibility Clouds
80° at 11 knots
 Gusting to 18 knots
Greater than 6 miles
  • Overcast at 3,000' AGL
Temporary Sep-24 @ 23:00 to Sep-25 @ 03:00
TEMPO 2423/2503 4SM -RA OVC015
Visibility Clouds Conditions
4 miles
  • Overcast at 1,500' AGL
  • Light Rain
From Sep-24 @ 23:00 to Sep-25 @ 03:00
FM242300 08011KT P6SM OVC025
Wind Visibility Clouds
80° at 11 knots Greater than 6 miles
  • Overcast at 2,500' AGL
From Sep-25 @ 03:00 to Sep-25 @ 09:00
FM250300 08011KT 3SM -RA BR OVC015
Wind Visibility Clouds Conditions
80° at 11 knots 3 miles
  • Overcast at 1,500' AGL
  • Light Rain
  • Mist
From Sep-25 @ 09:00 to Sep-25 @ 11:00
FM250900 11009KT 2SM -RA BR OVC008
Wind Visibility Clouds Conditions
110° at 9 knots 2 miles
  • Overcast at 800' AGL
  • Light Rain
  • Mist
From Sep-25 @ 11:00 to Sep-25 @ 16:00
FM251100 12009KT 4SM SHRA OVC010
Wind Visibility Clouds Conditions
120° at 9 knots 4 miles
  • Overcast at 1,000' AGL
  • Rain
From Sep-25 @ 16:00 to Sep-25 @ 18:00
FM251600 17009KT 5SM -SHRA OVC020
Wind Visibility Clouds Conditions
170° at 9 knots 5 miles
  • Overcast at 2,000' AGL
  • Light Rain
KILG 241738Z 2418/2518 08011G18KT P6SM VCSH OVC030 FM242300 08011KT P6SM OVC025 TEMPO 2423/2503 4SM -RA OVC015 FM250300 08011KT 3SM -RA BR OVC015 FM250900 11009KT 2SM -RA BR OVC008 FM251100 12009KT 4SM SHRA OVC010 FM251600 17009KT 5SM -SHRA OVC020
Issued Sep-24 @ 17:38 UTC
(6 hours ago)
Valid From Sep-24 @ 18:00 UTC
(5 hours ago)
Valid To Sep-25 @ 18:00 UTC
(in 19 hours)
Sep-24 @ 18:00 - Sep-24 @ 23:00
Wind Visibility
80° at 11 knots
 Gusting to 18 knots
Greater than 6 miles
Clouds
  • Overcast at 3,000' AGL
Temporary Sep-24 @ 23:00 - Sep-25 @ 03:00
Clouds
  • Overcast at 1,500' AGL
Conditions
  • Light Rain
From Sep-24 @ 23:00 - Sep-25 @ 03:00
Wind Visibility
80° at 11 knots Greater than 6 miles
Clouds
  • Overcast at 2,500' AGL
From Sep-25 @ 03:00 - Sep-25 @ 09:00
Wind Visibility
80° at 11 knots 3 miles
Clouds
  • Overcast at 1,500' AGL
Conditions
  • Light Rain
  • Mist
From Sep-25 @ 09:00 - Sep-25 @ 11:00
Wind Visibility
110° at 9 knots 2 miles
Clouds
  • Overcast at 800' AGL
Conditions
  • Light Rain
  • Mist
From Sep-25 @ 11:00 - Sep-25 @ 16:00
Wind Visibility
120° at 9 knots 4 miles
Clouds
  • Overcast at 1,000' AGL
Conditions
  • Rain
From Sep-25 @ 16:00 - Sep-25 @ 18:00
Wind Visibility
170° at 9 knots 5 miles
Clouds
  • Overcast at 2,000' AGL
Conditions
  • Light Rain